createdAt,value
2023-06-03T00:02:38.997Z,99177.16
2023-06-03T00:05:31.205Z,99176.84
2023-06-03T00:08:23.296Z,99177.35
2023-06-03T00:11:15.610Z,99179.88
2023-06-03T00:14:08.292Z,99178.95
2023-06-03T00:16:46.537Z,99175.96
2023-06-03T00:19:38.776Z,99174.44
2023-06-03T00:22:31.430Z,99178.96
2023-06-03T00:25:23.554Z,99177.60
2023-06-03T00:28:16.215Z,99177.98
2023-06-03T00:31:08.371Z,99181.44
2023-06-03T00:33:50.722Z,99179.61
2023-06-03T00:36:43.067Z,99178.64
2023-06-03T00:39:35.176Z,99179.08
2023-06-03T00:42:27.285Z,99183.67
2023-06-03T00:45:19.724Z,99184.23
2023-06-03T00:48:12.028Z,99182.45
2023-06-03T00:51:04.694Z,99182.04
2023-06-03T00:53:42.472Z,99188.47
2023-06-03T00:56:41.167Z,99188.34
2023-06-03T00:59:33.922Z,99188.27
2023-06-03T01:02:26.527Z,99189.09
2023-06-03T01:05:19.165Z,99192.30
2023-06-03T01:08:21.458Z,99195.68
2023-06-03T01:11:18.927Z,99197.94
2023-06-03T01:14:16.566Z,99197.02
2023-06-03T01:17:11.192Z,99198.48
2023-06-03T01:19:55.155Z,99199.21
2023-06-03T01:22:51.523Z,99202.53
2023-06-03T01:25:43.823Z,99208.55
2023-06-03T01:28:36.143Z,99210.89
2023-06-03T01:31:28.382Z,99207.46
2023-06-03T01:34:21.026Z,99207.04
2023-06-03T01:37:14.162Z,99205.41
2023-06-03T01:40:08.325Z,99208.41
2023-06-03T01:43:00.600Z,99208.36
2023-06-03T01:45:52.761Z,99208.73
2023-06-03T01:48:45.563Z,99206.45
2023-06-03T01:51:37.959Z,99204.84
2023-06-03T01:54:31.594Z,99205.23
2023-06-03T01:57:24.825Z,99205.55
2023-06-03T02:00:19.199Z,99204.42
2023-06-03T02:03:11.394Z,99206.95
2023-06-03T02:06:03.788Z,99205.83
2023-06-03T02:08:56.248Z,99207.98
2023-06-03T02:11:48.410Z,99206.10
2023-06-03T02:14:40.931Z,99208.96
2023-06-03T02:17:33.191Z,99212.91
2023-06-03T02:20:25.284Z,99215.20
2023-06-03T02:23:17.506Z,99216.48
2023-06-03T02:26:09.659Z,99220.11
2023-06-03T02:29:01.875Z,99223.04
2023-06-03T02:31:54.493Z,99230.29
2023-06-03T02:34:47.819Z,99229.16
2023-06-03T02:37:40.393Z,99236.78
2023-06-03T02:40:32.527Z,99243.64
2023-06-03T02:43:24.672Z,99243.23
2023-06-03T02:46:16.804Z,99246.82
2023-06-03T02:49:10.037Z,99249.19
2023-06-03T02:52:02.390Z,99243.35
2023-06-03T02:54:55.146Z,99244.92
2023-06-03T02:57:47.291Z,99240.64
2023-06-03T03:00:39.417Z,99243.38
2023-06-03T03:03:37.153Z,99245.77
2023-06-03T03:06:30.314Z,99249.52
2023-06-03T03:09:22.469Z,99256.45
2023-06-03T03:12:14.920Z,99259.58
2023-06-03T03:15:08.590Z,99264.31
2023-06-03T03:18:01.317Z,99262.77
2023-06-03T03:20:38.539Z,99265.52
2023-06-03T03:23:31.719Z,99262.89
2023-06-03T03:26:27.298Z,99266.06
2023-06-03T03:29:20.083Z,99264.27
2023-06-03T03:32:13.744Z,99268.91
2023-06-03T03:35:17.061Z,99271.13
2023-06-03T03:38:09.970Z,99276.85
2023-06-03T03:41:04.978Z,99282.43
2023-06-03T03:43:57.352Z,99281.98
2023-06-03T03:46:53.715Z,99286.47
2023-06-03T03:49:45.886Z,99284.33
2023-06-03T03:52:38.882Z,99287.91
2023-06-03T03:55:32.288Z,99289.95
2023-06-03T03:58:28.460Z,99288.73
2023-06-03T04:01:23.417Z,99291.05
2023-06-03T04:04:26.108Z,99294.58
2023-06-03T04:07:21.677Z,99296.38
2023-06-03T04:10:14.032Z,99294.48
2023-06-03T04:13:08.251Z,99294.88
2023-06-03T04:16:02.397Z,99300.36
2023-06-03T04:18:53.280Z,99302.12
2023-06-03T04:21:47.161Z,99298.91
2023-06-03T04:24:39.695Z,99298.48
2023-06-03T04:27:31.909Z,99303.28
2023-06-03T04:30:24.076Z,99302.97
2023-06-03T04:33:16.316Z,99305.00
2023-06-03T04:36:08.739Z,99307.27
2023-06-03T04:39:00.876Z,99305.88
2023-06-03T04:41:53.727Z,99309.88
2023-06-03T04:44:36.020Z,99309.13
2023-06-03T04:47:30.165Z,99315.70
2023-06-03T04:50:26.666Z,99315.66
2023-06-03T04:53:19.355Z,99319.39
2023-06-03T04:56:12.227Z,99308.45
2023-06-03T04:59:05.236Z,99309.83
2023-06-03T05:01:57.559Z,99312.63
2023-06-03T05:04:50.861Z,99316.07
2023-06-03T05:07:43.126Z,99319.54
2023-06-03T05:10:36.255Z,99316.27
2023-06-03T05:13:28.364Z,99316.63
2023-06-03T05:16:20.606Z,99310.54
2023-06-03T05:19:12.721Z,99313.30
2023-06-03T05:22:05.115Z,99312.72
2023-06-03T05:24:57.268Z,99312.66
2023-06-03T05:28:02.162Z,99314.84
2023-06-03T05:30:55.855Z,99313.77
2023-06-03T05:33:47.996Z,99314.63
2023-06-03T05:36:40.244Z,99310.95
2023-06-03T05:39:23.476Z,99310.88
2023-06-03T05:42:15.749Z,99311.80
2023-06-03T05:45:09.869Z,99315.08
2023-06-03T05:48:02.007Z,99310.98
2023-06-03T05:50:55.875Z,99312.48
2023-06-03T05:53:49.244Z,99305.55
2023-06-03T05:56:41.449Z,99304.84
2023-06-03T05:59:33.642Z,99301.39
2023-06-03T06:02:26.100Z,99304.68
2023-06-03T06:05:18.989Z,99306.10
2023-06-03T06:08:11.269Z,99309.35
2023-06-03T06:11:03.507Z,99307.03
2023-06-03T06:13:55.824Z,99305.95
2023-06-03T06:16:48.009Z,99308.77
2023-06-03T06:19:40.537Z,99312.41
2023-06-03T06:22:32.812Z,99310.59
2023-06-03T06:25:25.206Z,99313.61
2023-06-03T06:28:18.560Z,99319.15
2023-06-03T06:31:13.316Z,99314.95
2023-06-03T06:34:06.780Z,99313.13
2023-06-03T06:37:00.707Z,99311.65
2023-06-03T06:39:53.711Z,99310.66
2023-06-03T06:42:46.150Z,99318.77
2023-06-03T06:45:28.345Z,99321.65
2023-06-03T06:48:21.391Z,99322.19
2023-06-03T06:50:57.165Z,99328.23
2023-06-03T06:53:50.212Z,99326.27
2023-06-03T06:56:42.317Z,99322.92
2023-06-03T06:59:34.662Z,99333.09
2023-06-03T07:02:27.859Z,99330.75
2023-06-03T07:05:20.071Z,99335.45
2023-06-03T07:08:12.382Z,99333.91
2023-06-03T07:11:06.991Z,99334.45
2023-06-03T07:13:59.621Z,99338.98
2023-06-03T07:16:51.792Z,99341.56
2023-06-03T07:19:37.977Z,99343.61
2023-06-03T07:22:31.480Z,99349.61
2023-06-03T07:25:36.868Z,99350.04
2023-06-03T07:28:33.044Z,99346.86
2023-06-03T07:31:25.308Z,99345.54
2023-06-03T07:34:25.100Z,99350.15
2023-06-03T07:37:12.052Z,99352.39
2023-06-03T07:40:10.987Z,99355.86
2023-06-03T07:43:03.158Z,99351.55
2023-06-03T07:45:55.315Z,99352.55
2023-06-03T07:48:47.448Z,99353.84
2023-06-03T07:51:42.986Z,99350.79
2023-06-03T07:54:37.334Z,99351.31
2023-06-03T07:57:30.147Z,99352.71
2023-06-03T08:00:22.637Z,99350.69
2023-06-03T08:03:20.171Z,99352.94
2023-06-03T08:06:12.761Z,99352.95
2023-06-03T08:09:05.958Z,99357.10
2023-06-03T08:11:58.527Z,99350.80
2023-06-03T08:14:50.726Z,99351.73
2023-06-03T08:17:44.910Z,99350.17
2023-06-03T08:20:39.001Z,99354.63
2023-06-03T08:23:31.680Z,99351.85
2023-06-03T08:26:07.340Z,99352.20
2023-06-03T08:28:59.706Z,99356.30
2023-06-03T08:31:51.880Z,99350.53
2023-06-03T08:34:44.078Z,99352.95
2023-06-03T08:37:36.699Z,99356.88
2023-06-03T08:40:11.538Z,99361.27
2023-06-03T08:43:06.887Z,99361.56
2023-06-03T08:46:11.614Z,99367.86
2023-06-03T08:49:08.299Z,99364.87
2023-06-03T08:51:43.610Z,99363.46
2023-06-03T08:54:39.553Z,99365.52
2023-06-03T08:57:35.345Z,99360.45
2023-06-03T09:00:28.686Z,99363.17
2023-06-03T09:03:22.279Z,99366.52
2023-06-03T09:06:15.569Z,99367.51
2023-06-03T09:09:10.278Z,99365.08
2023-06-03T09:12:03.880Z,99363.70
2023-06-03T09:14:45.490Z,99365.06
2023-06-03T09:17:38.837Z,99359.67
2023-06-03T09:20:30.987Z,99357.53
2023-06-03T09:23:23.738Z,99358.88
2023-06-03T09:26:16.017Z,99359.52
2023-06-03T09:29:08.739Z,99349.38
2023-06-03T09:32:01.773Z,99352.75
2023-06-03T09:34:55.463Z,99351.02
2023-06-03T09:38:05.715Z,99352.98
2023-06-03T09:40:57.938Z,99349.65
2023-06-03T09:44:02.355Z,99347.32
2023-06-03T09:46:54.536Z,99344.53
2023-06-03T09:50:05.624Z,99347.79
2023-06-03T09:52:57.770Z,99345.27
2023-06-03T09:55:49.949Z,99341.11
2023-06-03T09:58:42.686Z,99345.50
2023-06-03T10:01:35.203Z,99344.41
2023-06-03T10:04:41.734Z,99334.54
2023-06-03T10:07:21.206Z,99334.10
2023-06-03T10:10:14.020Z,99330.80
2023-06-03T10:13:24.629Z,99329.45
2023-06-03T10:16:16.821Z,99331.80
2023-06-03T10:19:09.037Z,99336.29
2023-06-03T10:22:01.287Z,99329.16
2023-06-03T10:24:58.115Z,99325.80
2023-06-03T10:27:51.345Z,99318.77
2023-06-03T10:30:44.022Z,99319.15
2023-06-03T10:33:20.992Z,99318.20
2023-06-03T10:36:14.123Z,99326.77
2023-06-03T10:39:11.742Z,99327.09
2023-06-03T10:42:08.065Z,99318.65
2023-06-03T10:45:00.840Z,99314.34
2023-06-03T10:47:55.526Z,99312.13
2023-06-03T10:51:03.183Z,99313.13
2023-06-03T10:54:09.704Z,99308.36
2023-06-03T10:57:07.607Z,99303.92
2023-06-03T10:59:59.819Z,99298.58
2023-06-03T11:03:08.983Z,99292.59
2023-06-03T11:06:32.087Z,99290.38
2023-06-03T11:09:36.776Z,99298.44
2023-06-03T11:12:51.493Z,99302.60
2023-06-03T11:16:03.152Z,99296.36
2023-06-03T11:19:32.786Z,99297.25
2023-06-03T11:22:43.127Z,99292.39
2023-06-03T11:25:35.847Z,99294.23
2023-06-03T11:28:38.409Z,99294.15
2023-06-03T11:31:32.129Z,99296.04
2023-06-03T11:34:27.945Z,99290.20
2023-06-03T11:37:54.843Z,99292.74
2023-06-03T11:40:48.247Z,99292.03
2023-06-03T11:44:00.387Z,99288.75
2023-06-03T11:46:56.195Z,99289.79
2023-06-03T11:49:48.594Z,99295.70
2023-06-03T11:52:42.261Z,99291.09
2023-06-03T11:55:35.889Z,99289.04
2023-06-03T11:58:28.005Z,99287.16
2023-06-03T12:01:20.147Z,99287.54
2023-06-03T12:04:04.576Z,99282.14
2023-06-03T12:06:57.293Z,99283.67
2023-06-03T12:10:01.402Z,99283.51
2023-06-03T12:12:54.395Z,99278.86
2023-06-03T12:15:27.288Z,99277.69
2023-06-03T12:18:06.706Z,99279.39
2023-06-03T12:20:38.850Z,99277.27
2023-06-03T12:23:10.819Z,99268.20
2023-06-03T12:26:03.151Z,99268.98
2023-06-03T12:29:16.999Z,99265.16
2023-06-03T12:32:10.117Z,99267.41
2023-06-03T12:35:12.552Z,99263.20
2023-06-03T12:38:09.771Z,99261.13
2023-06-03T12:41:11.879Z,99253.40
2023-06-03T12:44:05.523Z,99250.26
2023-06-03T12:47:05.436Z,99253.13
2023-06-03T12:49:40.623Z,99252.72
2023-06-03T12:52:35.705Z,99251.92
2023-06-03T12:55:27.900Z,99251.34
2023-06-03T12:58:08.546Z,99251.09
2023-06-03T13:01:00.727Z,99244.52
2023-06-03T13:03:43.155Z,99246.19
2023-06-03T13:06:35.275Z,99246.98
2023-06-03T13:09:27.906Z,99243.59
2023-06-03T13:12:20.085Z,99237.06
2023-06-03T13:15:12.793Z,99232.66
2023-06-03T13:18:05.086Z,99234.66
2023-06-03T13:20:39.674Z,99237.07
2023-06-03T13:23:32.152Z,99229.00
2023-06-03T13:26:25.270Z,99218.31
2023-06-03T13:29:17.473Z,99219.43
2023-06-03T13:32:11.401Z,99216.23
2023-06-03T13:35:03.905Z,99217.58
2023-06-03T13:37:39.017Z,99218.01
2023-06-03T13:40:32.769Z,99218.30
2023-06-03T13:43:24.988Z,99212.73
2023-06-03T13:46:17.137Z,99208.06
2023-06-03T13:49:09.377Z,99205.70
2023-06-03T13:52:01.569Z,99206.98
2023-06-03T13:54:53.812Z,99205.94
2023-06-03T13:57:45.928Z,99202.95
2023-06-03T14:00:38.039Z,99200.83
2023-06-03T14:03:30.741Z,99198.12
2023-06-03T14:06:23.329Z,99197.95
2023-06-03T14:09:15.515Z,99190.68
2023-06-03T14:12:08.632Z,99191.83
2023-06-03T14:15:00.784Z,99186.48
2023-06-03T14:17:52.951Z,99181.84
2023-06-03T14:20:45.204Z,99183.11
2023-06-03T14:23:37.481Z,99184.24
2023-06-03T14:26:38.117Z,99184.77
2023-06-03T14:29:31.021Z,99182.45
2023-06-03T14:32:24.212Z,99176.52
2023-06-03T14:35:16.347Z,99173.85
2023-06-03T14:38:08.556Z,99169.98
2023-06-03T14:41:00.803Z,99172.86
2023-06-03T14:43:53.006Z,99171.94
2023-06-03T14:46:45.105Z,99163.96
2023-06-03T14:49:37.327Z,99164.13
2023-06-03T14:52:29.924Z,99158.43
2023-06-03T14:55:22.175Z,99153.73
2023-06-03T14:58:14.261Z,99153.03
2023-06-03T15:01:06.936Z,99150.54
2023-06-03T15:03:59.222Z,99149.33
2023-06-03T15:06:52.364Z,99149.52
2023-06-03T15:09:44.678Z,99146.80
2023-06-03T15:12:37.096Z,99145.86
2023-06-03T15:15:29.396Z,99147.73
2023-06-03T15:18:21.811Z,99149.05
2023-06-03T15:21:14.069Z,99152.92
2023-06-03T15:24:06.798Z,99146.19
2023-06-03T15:26:59.097Z,99142.23
2023-06-03T15:29:51.527Z,99138.57
2023-06-03T15:32:44.081Z,99137.17
2023-06-03T15:35:44.611Z,99134.64
2023-06-03T15:38:36.816Z,99135.91
2023-06-03T15:41:29.767Z,99136.20
2023-06-03T15:44:22.388Z,99133.55
2023-06-03T15:47:14.656Z,99132.80
2023-06-03T15:50:07.753Z,99132.38
2023-06-03T15:53:00.019Z,99129.86
2023-06-03T15:55:52.728Z,99132.49
2023-06-03T15:58:44.786Z,99128.48
2023-06-03T16:01:37.189Z,99124.63
2023-06-03T16:04:30.002Z,99122.30
2023-06-03T16:07:22.259Z,99121.25
2023-06-03T16:10:15.684Z,99121.14
2023-06-03T16:13:08.118Z,99120.67
2023-06-03T16:16:00.298Z,99118.60
2023-06-03T16:18:52.472Z,99121.16
2023-06-03T16:21:45.923Z,99124.07
2023-06-03T16:24:38.124Z,99122.98
2023-06-03T16:27:30.386Z,99120.92
2023-06-03T16:30:14.133Z,99117.13
2023-06-03T16:32:46.421Z,99114.22
2023-06-03T16:35:38.876Z,99117.77
2023-06-03T16:38:31.886Z,99117.86
2023-06-03T16:41:25.159Z,99120.36
2023-06-03T16:44:17.313Z,99119.36
2023-06-03T16:47:10.132Z,99120.85
2023-06-03T16:50:02.293Z,99117.65
2023-06-03T16:52:54.454Z,99111.50
2023-06-03T16:55:46.854Z,99116.33
2023-06-03T16:58:39.126Z,99116.55
2023-06-03T17:01:31.327Z,99114.24
2023-06-03T17:04:23.546Z,99115.91
2023-06-03T17:07:15.799Z,99118.61
2023-06-03T17:10:02.820Z,99118.83
2023-06-03T17:12:55.168Z,99121.38
2023-06-03T17:15:47.314Z,99117.23
2023-06-03T17:18:39.449Z,99118.02
2023-06-03T17:21:31.706Z,99114.73
2023-06-03T17:24:23.811Z,99120.14
2023-06-03T17:27:16.083Z,99122.21
2023-06-03T17:30:09.765Z,99115.88
2023-06-03T17:32:44.715Z,99118.40
2023-06-03T17:35:38.020Z,99114.13
2023-06-03T17:38:30.299Z,99110.14
2023-06-03T17:41:22.776Z,99108.46
2023-06-03T17:44:15.308Z,99114.17
2023-06-03T17:47:08.213Z,99114.19
2023-06-03T17:49:45.878Z,99113.21
2023-06-03T17:52:37.981Z,99110.64
2023-06-03T17:55:30.498Z,99111.22
2023-06-03T17:58:22.913Z,99110.77
2023-06-03T18:01:15.058Z,99114.31
2023-06-03T18:04:08.147Z,99113.41
2023-06-03T18:07:00.796Z,99116.77
2023-06-03T18:09:53.079Z,99120.17
2023-06-03T18:12:45.647Z,99118.23
2023-06-03T18:15:38.560Z,99120.73
2023-06-03T18:18:32.527Z,99126.31
2023-06-03T18:21:24.859Z,99129.13
2023-06-03T18:24:17.624Z,99127.09
2023-06-03T18:27:10.324Z,99130.02
2023-06-03T18:30:03.070Z,99131.99
2023-06-03T18:32:55.623Z,99134.69
2023-06-03T18:35:47.809Z,99131.89
2023-06-03T18:38:39.991Z,99135.37
2023-06-03T18:41:32.284Z,99136.80
2023-06-03T18:44:24.592Z,99142.38
2023-06-03T18:47:16.833Z,99145.23
2023-06-03T18:50:06.000Z,99146.13
2023-06-03T18:52:58.392Z,99149.83
2023-06-03T18:55:50.734Z,99148.12
2023-06-03T18:58:43.894Z,99148.11
2023-06-03T19:01:36.420Z,99153.02
2023-06-03T19:04:29.572Z,99151.55
2023-06-03T19:07:22.219Z,99159.48
2023-06-03T19:10:15.344Z,99161.24
2023-06-03T19:13:07.933Z,99161.31
2023-06-03T19:16:00.533Z,99159.97
2023-06-03T19:18:53.275Z,99165.14
2023-06-03T19:21:46.262Z,99163.64
2023-06-03T19:24:38.795Z,99168.67
2023-06-03T19:27:33.956Z,99168.13
2023-06-03T19:30:26.314Z,99175.54
2023-06-03T19:33:19.808Z,99177.53
2023-06-03T19:36:12.619Z,99176.35
2023-06-03T19:39:06.310Z,99177.19
2023-06-03T19:41:58.878Z,99181.13
2023-06-03T19:44:51.248Z,99186.71
2023-06-03T19:47:43.414Z,99186.36
2023-06-03T19:50:37.102Z,99193.37
2023-06-03T19:53:29.820Z,99199.46
2023-06-03T19:56:22.546Z,99203.96
2023-06-03T19:59:15.581Z,99211.78
2023-06-03T20:02:11.041Z,99210.63
2023-06-03T20:05:06.868Z,99214.56
2023-06-03T20:08:01.761Z,99220.50
2023-06-03T20:10:57.783Z,99220.71
2023-06-03T20:13:53.375Z,99220.45
2023-06-03T20:16:45.758Z,99222.66
2023-06-03T20:19:38.165Z,99223.17
2023-06-03T20:22:31.563Z,99224.27
2023-06-03T20:25:25.612Z,99225.95
2023-06-03T20:28:18.921Z,99227.69
2023-06-03T20:31:11.421Z,99225.48
2023-06-03T20:34:03.978Z,99227.73
2023-06-03T20:36:56.711Z,99225.33
2023-06-03T20:39:48.888Z,99222.41
2023-06-03T20:42:41.779Z,99218.55
2023-06-03T20:45:17.512Z,99216.94
2023-06-03T20:48:11.043Z,99216.44
2023-06-03T20:51:03.218Z,99222.35
2023-06-03T20:53:55.544Z,99222.85
2023-06-03T20:56:47.939Z,99218.39
2023-06-03T20:59:41.868Z,99222.42
2023-06-03T21:02:35.548Z,99225.48
2023-06-03T21:05:28.446Z,99221.64
2023-06-03T21:08:20.744Z,99222.90
2023-06-03T21:11:12.850Z,99221.92
2023-06-03T21:14:05.194Z,99221.48
2023-06-03T21:16:57.311Z,99224.53
2023-06-03T21:19:49.509Z,99228.35
2023-06-03T21:22:42.478Z,99224.45
2023-06-03T21:25:34.601Z,99224.94
2023-06-03T21:28:26.703Z,99221.19
2023-06-03T21:31:18.903Z,99221.77
2023-06-03T21:34:11.327Z,99221.46
2023-06-03T21:37:03.663Z,99221.79
2023-06-03T21:39:56.644Z,99225.47
2023-06-03T21:42:49.121Z,99224.98
2023-06-03T21:45:41.658Z,99217.77
2023-06-03T21:48:33.799Z,99220.30
2023-06-03T21:51:25.975Z,99217.08
2023-06-03T21:54:18.204Z,99223.33
2023-06-03T21:57:11.193Z,99215.83
2023-06-03T22:00:03.371Z,99214.34
2023-06-03T22:02:55.583Z,99215.40
2023-06-03T22:05:47.765Z,99212.64
2023-06-03T22:08:39.927Z,99213.30
2023-06-03T22:11:32.692Z,99216.13
2023-06-03T22:14:24.861Z,99215.23
2023-06-03T22:17:17.127Z,99216.59
2023-06-03T22:20:10.531Z,99216.14
2023-06-03T22:23:07.469Z,99217.36
2023-06-03T22:26:00.438Z,99216.52
2023-06-03T22:28:52.573Z,99214.89
2023-06-03T22:31:44.779Z,99212.16
2023-06-03T22:34:36.970Z,99207.04
2023-06-03T22:37:29.099Z,99207.90
2023-06-03T22:40:21.386Z,99205.40
2023-06-03T22:43:13.476Z,99205.38
2023-06-03T22:46:05.705Z,99204.60
2023-06-03T22:48:57.899Z,99205.52
2023-06-03T22:51:51.201Z,99205.16
2023-06-03T22:54:43.345Z,99205.81
2023-06-03T22:57:35.531Z,99205.61
2023-06-03T23:00:27.633Z,99202.21
2023-06-03T23:03:02.270Z,99201.61
2023-06-03T23:05:54.782Z,99199.89
2023-06-03T23:08:47.102Z,99202.77
2023-06-03T23:11:39.186Z,99200.48
2023-06-03T23:14:31.307Z,99203.42
2023-06-03T23:17:23.445Z,99198.36
2023-06-03T23:20:03.264Z,99196.42
2023-06-03T23:22:55.562Z,99199.95
2023-06-03T23:25:48.002Z,99191.81
2023-06-03T23:28:40.152Z,99193.15
2023-06-03T23:31:32.322Z,99193.17
2023-06-03T23:34:25.696Z,99192.34
2023-06-03T23:37:17.779Z,99191.02
2023-06-03T23:40:12.255Z,99189.56
2023-06-03T23:43:04.575Z,99189.63
2023-06-03T23:45:56.737Z,99183.86
2023-06-03T23:48:49.174Z,99183.27
2023-06-03T23:51:41.246Z,99184.19
2023-06-03T23:54:33.403Z,99189.73
2023-06-03T23:57:25.841Z,99189.78
